TDCF/DCF METAR and TAF weather

Enter ICAO airport designator
Station Type Date Time Source
TDCF METAR 2020/11/26 20:00 UTC NOAA

TDCF 262000Z 15001KT 9999 BKN018 29/23 Q1010


Station Type Date Time Source
TDCF Decoded METAR 2020/11/26 20:00 UTC NOAA

Canefield Airport, Dominica (TDCF) 15-32N 061-24W 5M
Nov 26, 2020 - 03:00 PM EST / 2020.11.26 2000 UTC
Wind: from the SSE (150 degrees) at 1 MPH (1 KT):0
Visibility: greater than 7 mile(s):0
Sky conditions: mostly cloudy
Temperature: 84 F (29 C)
Dew Point: 73 F (23 C)
Relative Humidity: 70%
Pressure (altimeter): 29.83 in. Hg (1010 hPa)
ob: TDCF 262000Z 15001KT 9999 BKN018 29/23 Q1010
cycle: 20

Station Type Date Time Source
TDCF TAF 2012/05/01 18:15 UTC NOAA

TAF TDCF 011600Z 0118/0218 110010KT 9999 SCT018 BKN030
TEMPO 0118/0206 6000 SHRA BKN014 BKN070

Example: see airport list